Appleton, NY

9:09 PM EDT on May 25, 2015 (GMT -0400)
Somerset | | Change Station
CLOSE
Current Station
Personal Weather Station
Location: Appleton, NY
Elevation: 318 ft
Nearby Weather Stations

Elev 318 ft 43.33 °N, 78.63 °W | Updated 43 seconds ago

Overcast
Overcast
75.4 °F
Feels Like 78 °F
N
10.0
Wind Variable Wind from SSW
Gusts 13.0 mph

Today
High -- | Low -- °F
--% Chance of Precip.
Yesterday
High -- | Low -- °F
Precip. -- in
5:41 AM 8:41 PM
First Quarter, 53% visible
Pressure 29.99 in
Visibility 10.0 miles
Clouds Few 6000 ft
Scattered Clouds 16000 ft
Scattered Clouds 20000 ft
Mostly Cloudy 25000 ft
Heat Index 78 °F
Dew Point 61 °F
Humidity 62%
Rainfall 0.00 in
Snow Depth Not available.
UV 0 out of 12
Pollen 8.80 out of 12
Air Quality Not available.
Flu Activity Widespread
METAR KIAG 260053Z 22014KT 10SM FEW060 SCT160 SCT200 BKN250 22/14 A2999

More Conditions Fewer Conditions

Pressure 29.99 in
Visibility 10.0 miles
Clouds Few 6000 ft
Scattered Clouds 16000 ft
Scattered Clouds 20000 ft
Mostly Cloudy 25000 ft
Heat Index 78 °F
Dew Point 61 °F
Humidity 62%
Rainfall 0.00 in
Snow Depth Not available.
UV 0 out of 12
Pollen 8.80 out of 12
Air Quality Not available.
Flu Activity Widespread
METAR KIAG 260053Z 22014KT 10SM FEW060 SCT160 SCT200 BKN250 22/14 A2999

More Conditions Fewer Conditions

10-Day Weather Forecast

Almanac

Astronomy

May. 25, 2015 Rise Set
Actual Time
Civil Twilight
Nautical Twilight
Astronomical Twilight
Moon
Length of Visible Light
Length of Day
Tomorrow will be .
, % of the Moon is Illuminated

Today's Extremes

State Highs State Lows

Community

WunderPhotos

Upload Photos

1,824,201 photos uploaded!

WunderBlogs® & News

Nearby

Air Quality

  Air Quality AQ Index Pollutant
Not available.

Snow Depth

Station Depth Elevation

Earthquake Activity

City Distance Mag. Time & Date
Minimum magnitude displayed is 2.5.

Coastal Water Temperatures

Place Temperature

Stations

Nearby Weather Stations

Station Location Temp. Windchill Dew Point Humidity Wind Precip. Elev Updated Type